Time;durP1;ratioP1;P1;durP2;ratioP2;P2;SDS_P1;SDS_P2;PMS_P1;PMS_P2;Temp;Humidity;BMP_temperature;BMP_pressure;BME280_temperature;BME280_humidity;BME280_pressure;Samples;Min_cycle;Max_cycle;Signal;HPM_P1;HPM_P2
2021/12/29 00:02:25;;;;;;;;;4.25;4.25;11.00;99.90;;;;;;5050646;28;11443;-51
2021/12/29 00:04:56;;;;;;;;;5.50;5.50;11.00;99.90;;;;;;5046912;28;11437;-52
2021/12/29 00:07:27;;;;;;;;;4.00;4.00;11.00;99.90;;;;;;5045403;28;12253;-54
2021/12/29 00:10:00;;;;;;;;;3.50;3.50;11.00;99.90;;;;;;5049189;28;11453;-53
2021/12/29 00:12:34;;;;;;;;;4.75;4.75;11.00;99.90;;;;;;5051744;28;11428;-52
2021/12/29 00:15:07;;;;;;;;;7.75;7.75;11.10;99.90;;;;;;5043382;28;11532;-52
2021/12/29 00:17:40;;;;;;;;;9.25;8.25;11.00;99.90;;;;;;5049515;28;12104;-54
2021/12/29 00:20:13;;;;;;;;;8.50;8.50;11.00;99.90;;;;;;5028846;28;11428;-53
2021/12/29 00:22:43;;;;;;;;;12.25;12.25;11.10;99.90;;;;;;5049537;28;11410;-52
2021/12/29 00:25:14;;;;;;;;;13.00;11.00;11.00;99.90;;;;;;5042387;28;11486;-52
2021/12/29 00:27:44;;;;;;;;;8.00;8.00;11.00;99.90;;;;;;5050757;28;11443;-51
2021/12/29 00:30:16;;;;;;;;;9.75;9.00;11.00;99.90;;;;;;5052634;28;11483;-52
2021/12/29 00:32:58;;;;;;;;;8.00;8.00;11.10;99.90;;;;;;5066044;28;14599;-50
2021/12/29 00:35:49;;;;;;;;;10.00;10.00;11.00;99.90;;;;;;5059337;28;11485;-49
2021/12/29 00:38:37;;;;;;;;;13.25;13.25;11.00;99.90;;;;;;5054467;28;11407;-52
2021/12/29 00:41:27;;;;;;;;;13.75;13.75;11.10;99.90;;;;;;5064536;28;12073;-52
2021/12/29 00:44:01;;;;;;;;;13.50;13.50;11.00;99.90;;;;;;5057549;28;12178;-49
2021/12/29 00:46:52;;;;;;;;;14.00;14.00;11.10;99.90;;;;;;5059845;28;11451;-51
2021/12/29 00:49:30;;;;;;;;;15.00;15.00;11.10;99.90;;;;;;5054295;28;11448;-52
2021/12/29 00:52:05;;;;;;;;;15.50;15.50;11.10;99.90;;;;;;5049588;28;12167;-51
2021/12/29 00:54:38;;;;;;;;;16.00;16.00;11.10;99.90;;;;;;5049971;28;11450;-51
2021/12/29 00:57:09;;;;;;;;;16.25;16.25;11.10;99.90;;;;;;5042626;28;12278;-50
2021/12/29 00:59:39;;;;;;;;;15.00;15.00;11.10;99.90;;;;;;5051172;28;11458;-50
2021/12/29 01:02:13;;;;;;;;;12.50;12.50;11.10;99.90;;;;;;5058110;28;11465;-51
2021/12/29 01:04:44;;;;;;;;;12.50;12.50;11.10;99.90;;;;;;5050126;28;11423;-48
2021/12/29 01:07:16;;;;;;;;;11.00;10.25;11.10;99.90;;;;;;5055483;28;11494;-49
2021/12/29 01:09:47;;;;;;;;;9.50;9.50;11.10;99.90;;;;;;5052126;28;11971;-49
2021/12/29 01:12:17;;;;;;;;;12.00;12.00;11.10;99.90;;;;;;5052747;28;11600;-51
2021/12/29 01:14:54;;;;;;;;;10.00;10.00;11.10;99.90;;;;;;5047679;28;11491;-52
2021/12/29 01:17:26;;;;;;;;;9.50;9.50;11.00;99.90;;;;;;5037497;28;11424;-51
2021/12/29 01:19:57;;;;;;;;;9.50;9.50;11.00;99.90;;;;;;5048071;28;11448;-52
2021/12/29 01:22:28;;;;;;;;;12.50;12.50;11.10;99.90;;;;;;5035224;28;11425;-54
2021/12/29 01:25:01;;;;;;;;;14.75;14.75;11.10;99.90;;;;;;5036215;28;11441;-50
2021/12/29 01:27:34;;;;;;;;;14.25;14.25;11.00;99.90;;;;;;5054933;28;11432;-53
2021/12/29 01:30:10;;;;;;;;;13.50;13.50;11.00;99.90;;;;;;5047360;28;12241;-50
2021/12/29 01:32:42;;;;;;;;;17.00;17.00;11.00;99.90;;;;;;5060606;28;11617;-51
2021/12/29 01:35:13;;;;;;;;;16.75;16.75;11.10;99.90;;;;;;5049062;28;11454;-49
2021/12/29 01:37:44;;;;;;;;;17.00;17.00;11.00;99.90;;;;;;5051397;28;11390;-51
2021/12/29 01:40:19;;;;;;;;;16.75;16.75;11.10;99.90;;;;;;5044312;28;11455;-50
2021/12/29 01:42:49;;;;;;;;;17.00;17.00;11.10;99.90;;;;;;5054752;28;12544;-50
2021/12/29 01:45:19;;;;;;;;;17.50;17.50;11.10;99.90;;;;;;5049099;28;11433;-51
2021/12/29 01:47:50;;;;;;;;;17.25;17.25;11.10;99.90;;;;;;5047307;28;11478;-51
2021/12/29 01:50:21;;;;;;;;;19.00;19.00;11.00;99.90;;;;;;5037327;28;11432;-57
2021/12/29 01:52:56;;;;;;;;;18.75;17.75;11.10;99.90;;;;;;5045640;28;11423;-49
2021/12/29 01:55:29;;;;;;;;;17.00;17.00;11.10;99.90;;;;;;5050793;28;11437;-52
2021/12/29 01:58:02;;;;;;;;;19.50;19.50;11.10;99.90;;;;;;5050330;28;11477;-49
2021/12/29 02:00:41;;;;;;;;;19.75;19.75;11.10;99.90;;;;;;5050819;28;11414;-51
2021/12/29 02:03:14;;;;;;;;;18.75;18.75;11.00;99.90;;;;;;5032184;28;11444;-49
2021/12/29 02:05:47;;;;;;;;;19.25;19.25;11.10;99.90;;;;;;5051238;28;11451;-51
2021/12/29 02:08:22;;;;;;;;;19.75;19.75;11.10;99.90;;;;;;5046961;28;11471;-50
2021/12/29 02:10:56;;;;;;;;;20.00;20.00;11.10;99.90;;;;;;5039611;28;11424;-50
2021/12/29 02:13:28;;;;;;;;;17.00;17.00;11.10;99.90;;;;;;5049555;28;11492;-52
2021/12/29 02:15:59;;;;;;;;;17.25;17.25;11.10;99.90;;;;;;5057306;28;11412;-49
2021/12/29 02:18:31;;;;;;;;;14.75;14.75;11.10;99.90;;;;;;5050179;28;11472;-52
2021/12/29 02:21:03;;;;;;;;;16.50;16.50;11.10;99.90;;;;;;5055643;28;12078;-48
2021/12/29 02:23:47;;;;;;;;;17.75;17.75;11.10;99.90;;;;;;5047132;28;11566;-50
2021/12/29 02:26:19;;;;;;;;;20.50;20.50;11.10;99.90;;;;;;5038306;28;11475;-54
2021/12/29 02:28:51;;;;;;;;;21.50;21.50;11.10;99.90;;;;;;5051594;28;11523;-53
2021/12/29 02:31:25;;;;;;;;;17.50;17.50;11.10;99.90;;;;;;5052166;28;11468;-48
2021/12/29 02:33:57;;;;;;;;;18.25;18.25;11.10;99.90;;;;;;5050245;28;11440;-51
2021/12/29 02:36:30;;;;;;;;;23.75;23.75;11.10;99.90;;;;;;5050457;28;11477;-50
2021/12/29 02:39:04;;;;;;;;;20.50;20.50;11.10;99.90;;;;;;5053185;28;11510;-49
2021/12/29 02:41:36;;;;;;;;;19.75;19.75;11.10;99.90;;;;;;5035206;28;11575;-52
2021/12/29 02:44:10;;;;;;;;;21.25;21.25;11.10;99.90;;;;;;5045026;28;11464;-51
2021/12/29 02:46:41;;;;;;;;;17.75;17.75;11.10;99.90;;;;;;5052229;28;12269;-50
2021/12/29 02:49:15;;;;;;;;;20.50;20.50;11.10;99.90;;;;;;5055730;28;11540;-51
2021/12/29 02:51:47;;;;;;;;;17.50;17.50;11.10;99.90;;;;;;5028521;28;11453;-50
2021/12/29 02:54:19;;;;;;;;;20.00;20.00;11.10;99.90;;;;;;5033914;28;11532;-52
2021/12/29 02:56:54;;;;;;;;;18.00;18.00;11.10;99.90;;;;;;5048337;28;11444;-52
2021/12/29 02:59:25;;;;;;;;;20.25;20.25;11.10;99.90;;;;;;5048904;28;11533;-49
2021/12/29 03:01:56;;;;;;;;;17.50;17.50;11.10;99.90;;;;;;5051326;28;11446;-52
2021/12/29 03:04:26;;;;;;;;;19.25;19.25;11.10;99.90;;;;;;5050803;28;11568;-52
2021/12/29 03:06:56;;;;;;;;;17.75;17.75;11.10;99.90;;;;;;5048758;28;11444;-51
2021/12/29 03:09:28;;;;;;;;;20.00;20.00;11.10;99.90;;;;;;5051123;28;11522;-53
2021/12/29 03:11:58;;;;;;;;;20.00;20.00;11.10;99.90;;;;;;5050490;28;11787;-49
2021/12/29 03:14:29;;;;;;;;;17.00;17.00;11.10;99.90;;;;;;5053227;28;11469;-51
2021/12/29 03:17:02;;;;;;;;;22.25;22.25;11.10;99.90;;;;;;5045713;28;11434;-54
2021/12/29 03:19:32;;;;;;;;;16.00;16.00;11.10;99.90;;;;;;5052206;28;11461;-49
2021/12/29 03:22:03;;;;;;;;;20.50;20.50;11.10;99.90;;;;;;5045477;28;11516;-50
2021/12/29 03:24:33;;;;;;;;;20.50;20.50;11.10;99.90;;;;;;5050313;28;11482;-52
2021/12/29 03:27:03;;;;;;;;;19.00;19.00;11.10;99.90;;;;;;5042745;28;11492;-52
2021/12/29 03:29:34;;;;;;;;;17.50;17.50;11.10;99.90;;;;;;5051373;28;11655;-51
2021/12/29 03:32:09;;;;;;;;;17.25;17.25;11.10;99.90;;;;;;5048444;28;11479;-51
2021/12/29 03:34:40;;;;;;;;;20.75;20.75;11.20;99.90;;;;;;5035471;28;11516;-51
2021/12/29 03:37:12;;;;;;;;;21.75;21.75;11.10;99.90;;;;;;5042932;28;11672;-51
2021/12/29 03:39:45;;;;;;;;;20.50;20.50;11.00;99.90;;;;;;5055459;28;11546;-51
2021/12/29 03:42:16;;;;;;;;;18.75;18.75;11.00;99.90;;;;;;5030791;28;12244;-52
2021/12/29 03:44:46;;;;;;;;;20.75;20.75;11.00;99.90;;;;;;5045042;28;11562;-53
2021/12/29 03:47:17;;;;;;;;;20.50;20.50;11.00;99.90;;;;;;5047183;28;13215;-53
2021/12/29 03:49:46;;;;;;;;;18.75;18.75;11.00;99.90;;;;;;5051632;28;11477;-51
2021/12/29 03:52:16;;;;;;;;;16.00;16.00;11.00;99.90;;;;;;5047017;28;11462;-51
2021/12/29 03:54:48;;;;;;;;;19.75;18.75;11.00;99.90;;;;;;5051225;28;12236;-50
2021/12/29 03:57:19;;;;;;;;;16.00;16.00;11.00;99.90;;;;;;5053876;28;12140;-51
2021/12/29 03:59:49;;;;;;;;;12.75;12.75;11.00;99.90;;;;;;5047478;28;11497;-52
2021/12/29 04:02:20;;;;;;;;;16.25;16.25;11.00;99.90;;;;;;5053425;28;11504;-49
2021/12/29 04:04:53;;;;;;;;;18.00;18.00;11.00;99.90;;;;;;5049159;28;11434;-49
2021/12/29 04:07:23;;;;;;;;;20.00;17.50;11.00;99.90;;;;;;5052378;28;11529;-49
2021/12/29 04:09:55;;;;;;;;;10.25;10.25;11.00;99.90;;;;;;5044612;28;11556;-51
2021/12/29 04:12:26;;;;;;;;;11.25;11.25;11.00;99.90;;;;;;5056486;28;11479;-51
2021/12/29 04:14:57;;;;;;;;;7.25;7.25;11.00;99.90;;;;;;5049733;28;12916;-52
2021/12/29 04:17:36;;;;;;;;;9.00;9.00;11.00;99.90;;;;;;5050671;28;11479;-52
2021/12/29 04:23:17;;;;;;;;;5.00;5.00;11.00;99.90;;;;;;5047231;28;11482;-52
2021/12/29 04:25:49;;;;;;;;;4.50;4.50;11.00;99.90;;;;;;5052200;28;11443;-47
2021/12/29 04:28:23;;;;;;;;;2.25;2.25;11.00;99.90;;;;;;5050057;28;11477;-51
2021/12/29 04:31:07;;;;;;;;;1.50;1.50;11.00;99.90;;;;;;5050188;28;11646;-55
2021/12/29 04:33:39;;;;;;;;;0.75;0.75;11.00;99.90;;;;;;5030627;28;11465;-51
2021/12/29 04:36:09;;;;;;;;;2.25;2.25;11.00;99.90;;;;;;5050731;28;12164;-52
2021/12/29 04:38:41;;;;;;;;;1.75;1.75;10.90;99.90;;;;;;5046962;28;11476;-51
2021/12/29 04:41:14;;;;;;;;;2.75;2.75;11.00;99.90;;;;;;5053361;28;11442;-48
2021/12/29 04:43:46;;;;;;;;;5.75;5.75;10.90;99.90;;;;;;5046298;28;11419;-52
2021/12/29 04:46:16;;;;;;;;;5.25;5.25;10.90;99.90;;;;;;5048191;28;11479;-56
2021/12/29 04:48:58;;;;;;;;;2.25;2.25;10.90;99.90;;;;;;5048301;28;11449;-51
2021/12/29 04:51:34;;;;;;;;;1.00;1.00;10.90;99.90;;;;;;5043662;28;11432;-52
2021/12/29 04:54:07;;;;;;;;;1.25;1.25;10.90;99.90;;;;;;5051735;28;11415;-51
2021/12/29 04:56:39;;;;;;;;;0.75;0.75;11.00;99.90;;;;;;5047256;28;11494;-51
2021/12/29 04:59:10;;;;;;;;;0.75;0.75;11.00;99.90;;;;;;5051715;28;11497;-51
2021/12/29 05:01:40;;;;;;;;;2.50;2.50;10.90;99.90;;;;;;5050583;28;11432;-50
2021/12/29 05:04:20;;;;;;;;;2.75;2.75;11.00;99.90;;;;;;5049391;28;11457;-51
2021/12/29 05:09:41;;;;;;;;;4.75;4.75;11.00;99.90;;;;;;5046430;28;12236;-50
2021/12/29 05:12:15;;;;;;;;;6.00;6.00;10.90;99.90;;;;;;5051966;28;11483;-52
2021/12/29 05:14:46;;;;;;;;;6.50;6.50;10.90;99.90;;;;;;5049874;28;11502;-47
2021/12/29 05:17:16;;;;;;;;;8.00;8.00;11.00;99.90;;;;;;5053631;28;11500;-51
2021/12/29 05:19:48;;;;;;;;;9.75;9.75;11.00;99.90;;;;;;5051563;28;12949;-50
2021/12/29 05:22:20;;;;;;;;;13.50;13.50;10.90;99.90;;;;;;5052782;28;11489;-52
2021/12/29 05:24:51;;;;;;;;;14.00;14.00;11.00;99.90;;;;;;5049572;28;11507;-51
2021/12/29 05:27:23;;;;;;;;;13.50;13.50;10.90;99.90;;;;;;5052277;28;11498;-52
2021/12/29 05:29:53;;;;;;;;;13.50;13.50;10.90;99.90;;;;;;5057125;28;12269;-51
2021/12/29 05:32:23;;;;;;;;;10.75;10.75;10.90;99.90;;;;;;5042913;28;11479;-51
2021/12/29 05:34:54;;;;;;;;;13.25;13.25;10.90;99.90;;;;;;5038362;28;11480;-49
2021/12/29 05:37:25;;;;;;;;;12.25;12.25;10.90;99.90;;;;;;5047291;28;12475;-49
2021/12/29 05:39:56;;;;;;;;;15.00;14.50;10.90;99.90;;;;;;5056167;28;11452;-52
2021/12/29 05:42:26;;;;;;;;;14.00;14.00;10.90;99.90;;;;;;5050779;28;11490;-51
2021/12/29 05:44:57;;;;;;;;;12.25;12.25;10.90;99.90;;;;;;5049148;28;12381;-50
2021/12/29 05:47:27;;;;;;;;;12.75;12.75;10.90;99.90;;;;;;5053195;28;11487;-52
2021/12/29 05:49:58;;;;;;;;;13.00;13.00;10.90;99.90;;;;;;5036860;28;11516;-49
2021/12/29 05:52:29;;;;;;;;;10.50;10.50;10.90;99.90;;;;;;5055161;28;11585;-51
2021/12/29 05:55:00;;;;;;;;;8.50;8.50;10.90;99.90;;;;;;5037113;28;11600;-50
2021/12/29 05:57:30;;;;;;;;;6.50;6.50;10.90;99.90;;;;;;5055751;28;11485;-51
2021/12/29 06:00:02;;;;;;;;;8.25;8.25;10.90;99.90;;;;;;5053793;28;11477;-51
2021/12/29 06:02:32;;;;;;;;;7.75;7.75;11.00;99.90;;;;;;5059503;28;11438;-52
2021/12/29 06:05:06;;;;;;;;;6.50;6.50;10.90;99.90;;;;;;5056902;28;11471;-50
2021/12/29 06:07:38;;;;;;;;;3.50;3.50;11.00;99.90;;;;;;5034783;28;11624;-52
2021/12/29 06:10:10;;;;;;;;;4.75;4.75;10.90;99.90;;;;;;5055992;28;11509;-51
2021/12/29 06:12:42;;;;;;;;;6.25;6.25;10.90;99.90;;;;;;5056158;28;11474;-52
2021/12/29 06:15:15;;;;;;;;;8.50;8.50;10.90;99.90;;;;;;5049528;28;11575;-52
2021/12/29 06:17:46;;;;;;;;;5.50;5.00;10.90;99.90;;;;;;5053118;28;11446;-51
2021/12/29 06:20:18;;;;;;;;;3.75;3.75;10.90;99.90;;;;;;5043020;28;11678;-51
2021/12/29 06:22:48;;;;;;;;;1.75;1.75;10.90;99.90;;;;;;5053431;28;11459;-51
2021/12/29 06:25:18;;;;;;;;;1.00;1.00;10.90;99.90;;;;;;5036203;28;11660;-50
2021/12/29 06:27:50;;;;;;;;;4.00;4.00;10.90;99.90;;;;;;5054091;28;11463;-52
2021/12/29 06:30:20;;;;;;;;;2.50;2.50;10.90;99.90;;;;;;5047964;28;11522;-49
2021/12/29 06:32:53;;;;;;;;;0.50;0.50;10.90;99.90;;;;;;5054268;28;11471;-52
2021/12/29 06:35:25;;;;;;;;;0.00;0.00;10.90;99.90;;;;;;5030673;28;11428;-50
2021/12/29 06:37:57;;;;;;;;;1.00;0.00;10.90;99.90;;;;;;5051660;28;11409;-48
2021/12/29 06:40:28;;;;;;;;;0.00;0.00;10.90;99.90;;;;;;5045509;28;11434;-48
2021/12/29 06:42:59;;;;;;;;;0.00;0.00;10.90;99.90;;;;;;5035827;28;11536;-50
2021/12/29 06:45:30;;;;;;;;;0.00;0.00;10.90;99.90;;;;;;5048603;28;11405;-51
2021/12/29 06:48:01;;;;;;;;;0.00;0.00;10.90;99.90;;;;;;5049254;28;11498;-50
2021/12/29 06:50:32;;;;;;;;;0.00;0.00;10.90;99.90;;;;;;5047482;28;11500;-48
2021/12/29 06:53:04;;;;;;;;;0.00;0.00;10.90;99.90;;;;;;5031802;28;11542;-49
2021/12/29 06:55:35;;;;;;;;;0.00;0.00;10.90;99.90;;;;;;5034879;28;11477;-51
2021/12/29 06:58:06;;;;;;;;;0.00;0.00;10.90;99.90;;;;;;5049864;28;11415;-52
2021/12/29 07:00:36;;;;;;;;;0.00;0.00;10.90;99.90;;;;;;5050142;28;12170;-50
2021/12/29 07:03:07;;;;;;;;;0.00;0.00;10.90;99.90;;;;;;5029382;28;11436;-51
2021/12/29 07:05:40;;;;;;;;;0.00;0.00;10.90;99.90;;;;;;5050626;28;11564;-51
2021/12/29 07:08:11;;;;;;;;;0.00;0.00;10.90;99.90;;;;;;5052024;28;11447;-51
2021/12/29 07:10:43;;;;;;;;;0.00;0.00;10.90;99.90;;;;;;5049508;28;11415;-52
2021/12/29 07:13:15;;;;;;;;;0.00;0.00;10.90;99.90;;;;;;5046305;28;11418;-51
2021/12/29 07:15:46;;;;;;;;;0.00;0.00;10.90;99.90;;;;;;5051952;28;11575;-48
2021/12/29 07:18:17;;;;;;;;;0.00;0.00;10.80;99.90;;;;;;5045531;28;11438;-51
2021/12/29 07:20:47;;;;;;;;;0.00;0.00;10.80;99.90;;;;;;5050228;28;11440;-52
2021/12/29 07:23:18;;;;;;;;;0.00;0.00;10.90;99.90;;;;;;5030541;28;12387;-51
2021/12/29 07:25:50;;;;;;;;;0.00;0.00;10.80;99.90;;;;;;5053575;28;11409;-51
2021/12/29 07:28:22;;;;;;;;;0.00;0.00;10.80;99.90;;;;;;5033584;28;11421;-52
2021/12/29 07:30:52;;;;;;;;;0.00;0.00;10.80;99.90;;;;;;5049292;28;11419;-52
2021/12/29 07:33:24;;;;;;;;;0.00;0.00;10.80;99.90;;;;;;5048359;28;11456;-52
2021/12/29 07:35:55;;;;;;;;;0.00;0.00;10.80;99.90;;;;;;5050171;28;12041;-51
2021/12/29 07:38:26;;;;;;;;;0.00;0.00;10.80;99.90;;;;;;5045544;28;12580;-50
2021/12/29 07:40:57;;;;;;;;;0.00;0.00;10.80;99.90;;;;;;5050527;28;12140;-51
2021/12/29 07:43:27;;;;;;;;;0.00;0.00;10.80;99.90;;;;;;5051398;28;11445;-51
2021/12/29 07:45:58;;;;;;;;;0.00;0.00;10.80;99.90;;;;;;5033532;28;11419;-49
2021/12/29 07:48:30;;;;;;;;;1.00;0.00;10.80;99.90;;;;;;5048792;28;11373;-53
2021/12/29 07:51:03;;;;;;;;;0.00;0.00;10.80;99.90;;;;;;5044914;28;11433;-50
2021/12/29 07:53:37;;;;;;;;;0.00;0.00;10.80;99.90;;;;;;5051123;28;11477;-49
2021/12/29 07:56:09;;;;;;;;;0.00;0.00;10.80;99.90;;;;;;5046088;28;11362;-51
2021/12/29 07:58:39;;;;;;;;;0.00;0.00;10.80;99.90;;;;;;5051843;28;11395;-49
2021/12/29 08:01:10;;;;;;;;;0.00;0.00;10.80;99.90;;;;;;5048740;28;11646;-50
2021/12/29 08:03:47;;;;;;;;;0.00;0.00;10.80;99.90;;;;;;5048040;28;11410;-53
2021/12/29 08:06:19;;;;;;;;;0.00;0.00;10.80;99.90;;;;;;5045020;28;11418;-51
2021/12/29 08:08:50;;;;;;;;;0.00;0.00;10.80;99.90;;;;;;5053271;28;11545;-52
2021/12/29 08:11:22;;;;;;;;;0.00;0.00;10.80;99.90;;;;;;5034213;28;11444;-51
2021/12/29 08:13:53;;;;;;;;;0.00;0.00;10.80;99.90;;;;;;5049909;28;11420;-51
2021/12/29 08:16:25;;;;;;;;;0.00;0.00;10.80;99.90;;;;;;5031758;28;11392;-50
2021/12/29 08:18:55;;;;;;;;;0.00;0.00;10.80;99.90;;;;;;5050757;28;11459;-52
2021/12/29 08:21:26;;;;;;;;;0.00;0.00;10.80;99.90;;;;;;5047060;28;11407;-51
2021/12/29 08:23:56;;;;;;;;;0.00;0.00;10.80;99.90;;;;;;5051547;28;11391;-51
2021/12/29 08:26:26;;;;;;;;;0.00;0.00;10.80;99.90;;;;;;5054285;28;11473;-52
2021/12/29 08:28:58;;;;;;;;;0.00;0.00;10.80;99.90;;;;;;5047924;28;11404;-51
2021/12/29 08:31:33;;;;;;;;;0.00;0.00;10.80;99.90;;;;;;5048200;28;11478;-49
2021/12/29 08:34:03;;;;;;;;;0.00;0.00;10.80;99.90;;;;;;5046655;28;11481;-50
2021/12/29 08:36:34;;;;;;;;;0.00;0.00;10.80;99.90;;;;;;5046727;28;11472;-48
2021/12/29 08:39:05;;;;;;;;;0.00;0.00;10.80;99.90;;;;;;5047824;28;11430;-49
2021/12/29 08:41:35;;;;;;;;;0.00;0.00;10.80;99.90;;;;;;5050169;28;11439;-51
2021/12/29 08:44:06;;;;;;;;;0.50;0.50;10.80;99.90;;;;;;5043010;28;11433;-48
2021/12/29 08:46:36;;;;;;;;;1.00;1.00;10.80;99.90;;;;;;5049390;28;11497;-51
2021/12/29 08:49:08;;;;;;;;;0.25;0.25;10.90;99.90;;;;;;5051821;28;11773;-51
2021/12/29 08:51:40;;;;;;;;;0.75;0.75;10.90;99.90;;;;;;5035848;28;11455;-50
2021/12/29 08:54:12;;;;;;;;;2.25;2.25;10.80;99.90;;;;;;5037453;28;11458;-50
2021/12/29 08:56:42;;;;;;;;;2.00;2.00;10.80;99.90;;;;;;5060602;28;11443;-52
2021/12/29 08:59:13;;;;;;;;;2.00;2.00;10.90;99.90;;;;;;5036900;28;11644;-50
2021/12/29 09:01:45;;;;;;;;;2.00;2.00;10.90;99.90;;;;;;5051629;28;11474;-48
2021/12/29 09:04:16;;;;;;;;;4.00;4.00;10.90;99.90;;;;;;5057669;28;12493;-47
2021/12/29 09:06:47;;;;;;;;;5.50;5.50;10.90;99.90;;;;;;5048393;28;11529;-49
2021/12/29 09:09:19;;;;;;;;;8.25;8.25;10.90;99.90;;;;;;5037841;28;11539;-50
2021/12/29 09:11:50;;;;;;;;;6.25;6.25;10.80;99.90;;;;;;5050169;28;11521;-51
2021/12/29 09:14:20;;;;;;;;;0.50;0.50;10.80;99.90;;;;;;5056785;28;11492;-50
2021/12/29 09:16:52;;;;;;;;;0.00;0.00;10.80;99.90;;;;;;5051791;28;12192;-52
2021/12/29 09:19:24;;;;;;;;;0.00;0.00;10.80;99.90;;;;;;5054323;28;11378;-51
2021/12/29 09:21:56;;;;;;;;;0.00;0.00;10.80;99.90;;;;;;5014034;28;11431;-55
2021/12/29 09:24:27;;;;;;;;;0.00;0.00;10.80;99.90;;;;;;5055423;28;11594;-50
2021/12/29 09:27:02;;;;;;;;;0.00;0.00;10.80;99.90;;;;;;5050098;28;11421;-50
2021/12/29 09:29:36;;;;;;;;;0.00;0.00;10.80;99.90;;;;;;5056424;28;12207;-56
2021/12/29 09:32:07;;;;;;;;;0.00;0.00;10.80;99.90;;;;;;5048561;28;11445;-52
2021/12/29 09:34:39;;;;;;;;;0.00;0.00;10.80;99.90;;;;;;5054423;28;11399;-51
2021/12/29 09:37:10;;;;;;;;;0.00;0.00;10.80;99.90;;;;;;5045837;28;11414;-50
2021/12/29 09:39:40;;;;;;;;;0.00;0.00;10.70;99.90;;;;;;5048350;28;11342;-50
2021/12/29 09:42:14;;;;;;;;;0.00;0.00;10.80;99.90;;;;;;5037496;28;11460;-50
2021/12/29 09:44:44;;;;;;;;;0.00;0.00;10.80;99.90;;;;;;5051721;28;12191;-51
2021/12/29 09:47:16;;;;;;;;;0.00;0.00;10.80;99.90;;;;;;5051452;28;11437;-51
2021/12/29 09:49:47;;;;;;;;;0.00;0.00;10.80;99.90;;;;;;5048887;28;11430;-53
2021/12/29 09:52:18;;;;;;;;;0.00;0.00;10.80;99.90;;;;;;5052801;28;12193;-52
2021/12/29 09:54:49;;;;;;;;;0.00;0.00;10.80;99.90;;;;;;5034585;28;12187;-53
2021/12/29 09:57:20;;;;;;;;;0.00;0.00;10.80;99.90;;;;;;5054495;28;12478;-50
2021/12/29 09:59:51;;;;;;;;;1.25;1.25;10.80;99.90;;;;;;5052750;28;11438;-52
2021/12/29 10:02:21;;;;;;;;;3.00;3.00;10.80;99.90;;;;;;5052692;28;11445;-53
2021/12/29 10:04:53;;;;;;;;;1.00;1.00;10.80;99.90;;;;;;5054226;28;11709;-51
2021/12/29 10:07:25;;;;;;;;;0.00;0.00;10.80;99.90;;;;;;5048043;28;11463;-51
2021/12/29 10:09:56;;;;;;;;;0.00;0.00;10.80;99.90;;;;;;5050276;28;11388;-50
2021/12/29 10:12:27;;;;;;;;;0.00;0.00;10.80;99.90;;;;;;5051247;28;11467;-48
2021/12/29 10:15:06;;;;;;;;;0.00;0.00;10.70;99.90;;;;;;5051056;28;11446;-50
2021/12/29 10:17:37;;;;;;;;;0.00;0.00;10.70;99.90;;;;;;5058045;28;11444;-50
2021/12/29 10:20:11;;;;;;;;;0.00;0.00;10.70;99.90;;;;;;5049776;28;11416;-52
2021/12/29 10:22:42;;;;;;;;;0.00;0.00;10.70;99.90;;;;;;5052401;28;11981;-49
2021/12/29 10:25:19;;;;;;;;;0.00;0.00;10.80;99.90;;;;;;5049503;28;11951;-53
2021/12/29 10:27:49;;;;;;;;;0.00;0.00;10.70;99.90;;;;;;5051859;28;11408;-50
2021/12/29 10:30:29;;;;;;;;;0.00;0.00;10.70;99.90;;;;;;5019229;28;11718;-49
2021/12/29 10:33:11;;;;;;;;;0.00;0.00;10.70;99.90;;;;;;5054337;28;11414;-50
2021/12/29 10:35:43;;;;;;;;;0.00;0.00;10.70;99.90;;;;;;5048199;28;11953;-50
2021/12/29 10:38:17;;;;;;;;;0.00;0.00;10.70;99.90;;;;;;5042734;28;11419;-52
2021/12/29 10:40:48;;;;;;;;;0.00;0.00;10.70;99.90;;;;;;5049260;28;11470;-52
2021/12/29 10:43:19;;;;;;;;;0.00;0.00;10.70;99.90;;;;;;5051699;28;11411;-51
2021/12/29 10:45:53;;;;;;;;;0.00;0.00;10.70;99.90;;;;;;5048390;28;11470;-51
2021/12/29 10:48:28;;;;;;;;;0.00;0.00;10.70;99.90;;;;;;5050954;28;11403;-46
2021/12/29 10:51:05;;;;;;;;;0.00;0.00;10.70;99.90;;;;;;5048958;28;11432;-47
2021/12/29 10:53:39;;;;;;;;;0.00;0.00;10.70;99.90;;;;;;5049106;28;11494;-51
2021/12/29 10:56:25;;;;;;;;;0.00;0.00;10.70;99.90;;;;;;5050783;28;11418;-52
2021/12/29 10:58:56;;;;;;;;;0.00;0.00;10.70;99.90;;;;;;5052470;28;11415;-52
2021/12/29 11:01:27;;;;;;;;;0.00;0.00;10.70;99.90;;;;;;5045548;28;11433;-52
2021/12/29 11:03:58;;;;;;;;;0.00;0.00;10.70;99.90;;;;;;5036048;28;11858;-53
2021/12/29 11:06:28;;;;;;;;;0.00;0.00;10.60;99.90;;;;;;5047174;28;11453;-52
2021/12/29 11:09:02;;;;;;;;;0.00;0.00;10.60;99.90;;;;;;5050173;28;11567;-51
2021/12/29 11:11:37;;;;;;;;;0.00;0.00;10.60;99.90;;;;;;5050193;28;11418;-52
2021/12/29 11:14:32;;;;;;;;;0.00;0.00;10.70;99.90;;;;;;5052096;28;11431;-50
2021/12/29 11:17:22;;;;;;;;;0.00;0.00;10.60;99.90;;;;;;5052642;28;11434;-51
2021/12/29 11:19:56;;;;;;;;;0.00;0.00;10.60;99.90;;;;;;5044326;28;11409;-49
2021/12/29 11:22:29;;;;;;;;;0.00;0.00;10.60;99.90;;;;;;5035534;28;11448;-52
2021/12/29 11:25:02;;;;;;;;;0.00;0.00;10.60;99.90;;;;;;5037682;28;11405;-51
2021/12/29 11:27:37;;;;;;;;;0.00;0.00;10.60;99.90;;;;;;5051858;28;11493;-52
2021/12/29 11:30:13;;;;;;;;;0.00;0.00;10.60;99.90;;;;;;5044441;28;11498;-51
2021/12/29 11:32:45;;;;;;;;;0.00;0.00;10.60;99.90;;;;;;5054478;28;11502;-50
2021/12/29 11:35:21;;;;;;;;;0.00;0.00;10.60;99.90;;;;;;5042414;28;12311;-50
2021/12/29 11:37:55;;;;;;;;;0.00;0.00;10.60;99.90;;;;;;5049519;28;11418;-51
2021/12/29 11:40:29;;;;;;;;;0.00;0.00;10.60;99.90;;;;;;5034104;28;11408;-51
2021/12/29 11:42:59;;;;;;;;;0.00;0.00;10.60;99.90;;;;;;5050406;28;11436;-49
2021/12/29 11:45:29;;;;;;;;;0.00;0.00;10.60;99.90;;;;;;5048604;28;11408;-51
2021/12/29 11:47:59;;;;;;;;;0.00;0.00;10.60;99.90;;;;;;5049286;28;11571;-51
2021/12/29 11:50:37;;;;;;;;;0.00;0.00;10.60;99.90;;;;;;5048904;28;11443;-48
2021/12/29 11:53:45;;;;;;;;;0.00;0.00;10.60;99.90;;;;;;5042943;28;12106;-49
2021/12/29 11:56:19;;;;;;;;;0.00;0.00;10.60;99.90;;;;;;5032801;28;11423;-50
2021/12/29 11:58:51;;;;;;;;;0.00;0.00;10.60;99.90;;;;;;5049101;28;11438;-52
2021/12/29 12:01:29;;;;;;;;;0.00;0.00;10.60;99.90;;;;;;5047847;28;11444;-49
2021/12/29 12:04:03;;;;;;;;;0.00;0.00;10.60;99.90;;;;;;5054157;28;13034;-49
2021/12/29 12:06:45;;;;;;;;;0.00;0.00;10.60;99.90;;;;;;5043080;28;11405;-51
2021/12/29 12:09:16;;;;;;;;;0.00;0.00;10.60;99.90;;;;;;5050687;28;11419;-48
2021/12/29 12:11:49;;;;;;;;;0.00;0.00;10.60;99.90;;;;;;5047006;28;11451;-51
2021/12/29 12:14:31;;;;;;;;;0.00;0.00;10.60;99.90;;;;;;5046935;28;11448;-53
2021/12/29 12:17:18;;;;;;;;;0.00;0.00;10.60;99.90;;;;;;5048488;28;11541;-50
2021/12/29 12:20:06;;;;;;;;;0.00;0.00;10.60;99.90;;;;;;5033112;28;11396;-49
2021/12/29 12:22:47;;;;;;;;;0.00;0.00;10.60;99.90;;;;;;5052411;28;11412;-50
2021/12/29 12:25:27;;;;;;;;;0.00;0.00;10.60;99.90;;;;;;5049968;28;11404;-51
2021/12/29 12:28:02;;;;;;;;;0.00;0.00;10.60;99.90;;;;;;5034445;28;11395;-51
2021/12/29 12:30:40;;;;;;;;;0.00;0.00;10.60;99.90;;;;;;5049068;28;13462;-51
2021/12/29 12:33:12;;;;;;;;;0.00;0.00;10.60;99.90;;;;;;5050784;28;11432;-52
2021/12/29 12:35:46;;;;;;;;;0.00;0.00;10.60;99.90;;;;;;5045103;28;11428;-50
2021/12/29 12:38:22;;;;;;;;;0.00;0.00;10.60;99.90;;;;;;5048399;28;12136;-51
2021/12/29 12:41:07;;;;;;;;;1.00;0.00;10.60;99.90;;;;;;5050675;28;12232;-51
2021/12/29 12:43:59;;;;;;;;;0.00;0.00;10.60;99.90;;;;;;5050911;28;11436;-51
2021/12/29 12:46:38;;;;;;;;;0.00;0.00;10.60;99.90;;;;;;5050085;28;11455;-49
2021/12/29 12:49:20;;;;;;;;;0.25;0.25;10.60;99.90;;;;;;5050542;28;11419;-49
2021/12/29 12:51:59;;;;;;;;;0.00;0.00;10.60;99.90;;;;;;5050229;28;11472;-50
2021/12/29 12:54:35;;;;;;;;;0.25;0.25;10.60;99.90;;;;;;5047413;28;11609;-53
2021/12/29 12:57:06;;;;;;;;;0.75;0.75;10.60;99.90;;;;;;5033215;28;11418;-50
2021/12/29 12:59:46;;;;;;;;;1.00;1.00;10.60;99.90;;;;;;5031439;28;11593;-52
2021/12/29 13:02:21;;;;;;;;;0.75;0.75;10.60;99.90;;;;;;5051078;28;11457;-51
2021/12/29 13:05:09;;;;;;;;;2.00;2.00;10.60;99.90;;;;;;5050106;28;11396;-50
2021/12/29 13:07:42;;;;;;;;;2.00;2.00;10.60;99.90;;;;;;5046784;28;11497;-51
2021/12/29 13:10:25;;;;;;;;;2.25;2.25;10.60;99.90;;;;;;5047236;28;11412;-52
2021/12/29 13:12:59;;;;;;;;;1.50;1.50;10.60;99.90;;;;;;5048822;28;11423;-52
2021/12/29 13:15:31;;;;;;;;;1.50;1.50;10.60;99.90;;;;;;5048707;28;11441;-48
2021/12/29 13:18:01;;;;;;;;;1.50;1.50;10.60;99.90;;;;;;5051683;28;11420;-49